Time,TemperatureF,DewpointF,PressureIn,WindDirection,WindDirectionDegrees,WindSpeedMPH,WindSpeedGustMPH,Humidity,HourlyPrecipIn,Conditions,Clouds,dailyrainin,SoftwareType,DateUTC
2013-01-22 00:15:00,28.2,15.0,29.82,WNW,302,9.0,11.0,57,0.00,,,0.00,weatherlink.com 1.10,2013-01-22 05:15:00,
2013-01-22 00:30:00,27.9,14.0,29.82,WSW,239,6.0,14.0,57,0.00,,,0.00,weatherlink.com 1.10,2013-01-22 05:30:00,
2013-01-22 00:45:00,27.8,13.0,29.82,West,270,7.0,12.0,55,0.00,,,0.00,weatherlink.com 1.10,2013-01-22 05:45:00,
2013-01-22 01:00:00,27.4,13.0,29.82,WNW,288,4.0,12.0,54,0.00,,,0.00,weatherlink.com 1.10,2013-01-22 06:00:00,
2013-01-22 01:15:00,27.2,11.0,29.83,West,259,8.0,13.0,50,0.00,,,0.00,weatherlink.com 1.10,2013-01-22 06:15:00,
2013-01-22 01:30:00,27.0,11.0,29.83,WNW,301,3.0,12.0,51,0.00,,,0.00,weatherlink.com 1.10,2013-01-22 06:30:00,
2013-01-22 01:45:00,26.9,10.0,29.84,West,277,3.0,8.0,50,0.00,,,0.00,weatherlink.com 1.10,2013-01-22 06:45:00,
2013-01-22 02:00:00,26.4,8.0,29.85,WNW,287,8.0,14.0,46,0.00,,,0.00,weatherlink.com 1.10,2013-01-22 07:00:00,
2013-01-22 02:15:00,26.0,7.0,29.85,WNW,299,10.0,15.0,44,0.00,,,0.00,weatherlink.com 1.10,2013-01-22 07:15:00,
2013-01-22 02:30:00,26.0,7.0,29.86,NW,308,9.0,15.0,45,0.00,,,0.00,weatherlink.com 1.10,2013-01-22 07:30:00,
2013-01-22 02:45:00,25.8,8.0,29.86,West,277,5.0,13.0,47,0.00,,,0.00,weatherlink.com 1.10,2013-01-22 07:45:00,
2013-01-22 03:00:00,25.7,7.0,29.86,NW,316,5.0,15.0,46,0.00,,,0.00,weatherlink.com 1.10,2013-01-22 08:00:00,
2013-01-22 03:15:00,25.4,8.0,29.86,WNW,287,3.0,14.0,48,0.00,,,0.00,weatherlink.com 1.10,2013-01-22 08:15:00,
2013-01-22 03:30:00,24.9,7.0,29.86,West,271,7.0,15.0,47,0.00,,,0.00,weatherlink.com 1.10,2013-01-22 08:30:00,
2013-01-22 03:45:00,24.2,5.0,29.87,WNW,299,8.0,20.0,44,0.00,,,0.00,weatherlink.com 1.10,2013-01-22 08:45:00,
2013-01-22 04:00:00,24.0,7.0,29.87,NW,322,5.0,20.0,48,0.00,,,0.00,weatherlink.com 1.10,2013-01-22 09:00:00,
2013-01-22 04:15:00,23.7,7.0,29.88,WNW,302,9.0,16.0,48,0.00,,,0.00,weatherlink.com 1.10,2013-01-22 09:15:00,
2013-01-22 04:30:00,23.9,8.0,29.89,WNW,299,2.0,11.0,51,0.00,,,0.00,weatherlink.com 1.10,2013-01-22 09:30:00,
2013-01-22 04:45:00,23.3,10.0,29.90,WNW,285,13.0,15.0,57,0.00,,,0.00,weatherlink.com 1.10,2013-01-22 09:45:00,
2013-01-22 05:01:00,22.9,10.0,29.91,NNW,340,12.0,16.0,58,0.00,,,0.00,weatherlink.com 1.10,2013-01-22 10:01:00,
2013-01-22 05:16:00,22.5,11.0,29.92,West,281,11.0,18.0,61,0.00,,,0.00,weatherlink.com 1.10,2013-01-22 10:16:00,
2013-01-22 05:31:00,22.3,10.0,29.92,WNW,287,5.0,18.0,60,0.00,,,0.00,weatherlink.com 1.10,2013-01-22 10:31:00,
2013-01-22 05:46:00,22.2,10.0,29.93,NW,325,11.0,15.0,60,0.00,,,0.00,weatherlink.com 1.10,2013-01-22 10:46:00,
2013-01-22 06:01:00,21.8,10.0,29.94,NNW,331,7.0,13.0,61,0.00,,,0.00,weatherlink.com 1.10,2013-01-22 11:01:00,
2013-01-22 06:16:00,21.6,10.0,29.94,WSW,246,6.0,13.0,62,0.00,,,0.00,weatherlink.com 1.10,2013-01-22 11:16:00,
2013-01-22 06:31:00,21.6,10.0,29.95,WNW,282,5.0,13.0,61,0.00,,,0.00,weatherlink.com 1.10,2013-01-22 11:31:00,
2013-01-22 07:01:00,21.7,7.0,29.96,South,180,1.0,14.0,53,0.00,,,0.00,weatherlink.com 1.10,2013-01-22 12:01:00,
2013-01-22 07:31:00,20.5,7.0,29.98,WSW,253,8.0,12.0,55,0.00,,,0.00,weatherlink.com 1.10,2013-01-22 12:31:00,
2013-01-22 07:46:00,20.6,7.0,29.98,WSW,240,9.0,12.0,57,0.00,,,0.00,weatherlink.com 1.10,2013-01-22 12:46:00,
2013-01-22 08:01:00,20.8,6.0,29.99,NW,308,6.0,11.0,54,0.00,,,0.00,weatherlink.com 1.10,2013-01-22 13:01:00,
2013-01-22 08:16:00,20.6,6.0,30.00,WSW,248,1.0,12.0,53,0.00,,,0.00,weatherlink.com 1.10,2013-01-22 13:16:00,
2013-01-22 08:31:00,20.4,8.0,30.00,NW,314,5.0,11.0,59,0.00,,,0.00,weatherlink.com 1.10,2013-01-22 13:31:00,
2013-01-22 09:01:00,19.7,11.0,30.01,West,269,8.0,13.0,68,0.00,,,0.00,weatherlink.com 1.10,2013-01-22 14:01:00,
2013-01-22 09:16:00,19.7,9.0,30.02,WNW,301,4.0,14.0,64,0.00,,,0.00,weatherlink.com 1.10,2013-01-22 14:16:00,
2013-01-22 09:31:00,19.9,8.0,30.02,NW,306,7.0,16.0,60,0.00,,,0.00,weatherlink.com 1.10,2013-01-22 14:31:00,
2013-01-22 09:47:00,19.8,5.0,30.03,NW,314,11.0,19.0,53,0.00,,,0.00,weatherlink.com 1.10,2013-01-22 14:47:00,
2013-01-22 10:01:00,20.3,2.0,30.03,NNW,330,14.0,24.0,45,0.00,,,0.00,weatherlink.com 1.10,2013-01-22 15:01:00,
2013-01-22 10:17:00,20.5,0.0,30.03,WNW,297,10.0,22.0,41,0.00,,,0.00,weatherlink.com 1.10,2013-01-22 15:17:00,
2013-01-22 10:32:00,20.7,-2.0,30.04,NW,312,12.0,22.0,37,0.00,,,0.00,weatherlink.com 1.10,2013-01-22 15:32:00,
2013-01-22 10:47:00,20.6,-1.0,30.04,NW,312,4.0,18.0,38,0.00,,,0.00,weatherlink.com 1.10,2013-01-22 15:47:00,
2013-01-22 11:02:00,20.9,-2.0,30.03,WNW,299,8.0,17.0,37,0.00,,,0.00,weatherlink.com 1.10,2013-01-22 16:02:00,
2013-01-22 11:17:00,21.3,-1.0,30.02,WNW,288,11.0,22.0,38,0.00,,,0.00,weatherlink.com 1.10,2013-01-22 16:17:00,
2013-01-22 11:32:00,21.8,-1.0,30.02,WSW,252,14.0,20.0,37,0.00,,,0.00,weatherlink.com 1.10,2013-01-22 16:32:00,
2013-01-22 11:47:00,21.3,1.0,30.01,NW,308,10.0,19.0,41,0.00,,,0.00,weatherlink.com 1.10,2013-01-22 16:47:00,
2013-01-22 12:02:00,20.8,0.0,30.01,NW,314,3.0,14.0,41,0.00,,,0.00,weatherlink.com 1.10,2013-01-22 17:02:00,
2013-01-22 12:17:00,20.8,-1.0,30.01,West,271,6.0,18.0,38,0.00,,,0.00,weatherlink.com 1.10,2013-01-22 17:17:00,
2013-01-22 12:32:00,21.0,-2.0,30.01,NW,314,7.0,16.0,36,0.00,,,0.00,weatherlink.com 1.10,2013-01-22 17:32:00,
2013-01-22 12:47:00,21.5,-4.0,30.00,WNW,297,5.0,17.0,33,0.00,,,0.00,weatherlink.com 1.10,2013-01-22 17:47:00,
2013-01-22 13:02:00,21.4,-4.0,30.00,WNW,288,7.0,21.0,33,0.00,,,0.00,weatherlink.com 1.10,2013-01-22 18:02:00,
2013-01-22 13:17:00,21.6,-4.0,30.00,NW,322,9.0,17.0,33,0.00,,,0.00,weatherlink.com 1.10,2013-01-22 18:17:00,
2013-01-22 13:32:00,21.6,-5.0,30.00,West,279,6.0,20.0,31,0.00,,,0.00,weatherlink.com 1.10,2013-01-22 18:32:00,
2013-01-22 13:47:00,22.0,-4.0,30.00,WNW,290,9.0,16.0,32,0.00,,,0.00,weatherlink.com 1.10,2013-01-22 18:47:00,
2013-01-22 14:03:00,21.8,-3.0,30.00,WNW,294,2.0,21.0,33,0.00,,,0.00,weatherlink.com 1.10,2013-01-22 19:03:00,
2013-01-22 14:18:00,21.5,-4.0,30.01,NW,316,5.0,24.0,33,0.00,,,0.00,weatherlink.com 1.10,2013-01-22 19:18:00,
2013-01-22 14:33:00,21.6,-2.0,30.01,WSW,246,9.0,20.0,35,0.00,,,0.00,weatherlink.com 1.10,2013-01-22 19:33:00,
2013-01-22 14:48:00,21.7,-3.0,30.02,West,271,7.0,19.0,33,0.00,,,0.00,weatherlink.com 1.10,2013-01-22 19:48:00,
2013-01-22 15:03:00,21.4,-3.0,30.02,West,281,17.0,20.0,34,0.00,,,0.00,weatherlink.com 1.10,2013-01-22 20:03:00,
2013-01-22 15:18:00,21.3,-3.0,30.03,West,267,8.0,17.0,35,0.00,,,0.00,weatherlink.com 1.10,2013-01-22 20:18:00,
2013-01-22 15:33:00,20.7,-3.0,30.03,WNW,287,9.0,17.0,35,0.00,,,0.00,weatherlink.com 1.10,2013-01-22 20:33:00,
2013-01-22 15:48:00,20.4,-3.0,30.04,NW,316,9.0,18.0,36,0.00,,,0.00,weatherlink.com 1.10,2013-01-22 20:48:00,
2013-01-22 16:03:00,20.5,-2.0,30.05,West,266,6.0,19.0,37,0.00,,,0.00,weatherlink.com 1.10,2013-01-22 21:03:00,
2013-01-22 16:18:00,20.0,-3.0,30.05,West,264,5.0,24.0,37,0.00,,,0.00,weatherlink.com 1.10,2013-01-22 21:18:00,
2013-01-22 16:33:00,19.7,-2.0,30.07,NNW,329,10.0,18.0,39,0.00,,,0.00,weatherlink.com 1.10,2013-01-22 21:33:00,
2013-01-22 16:48:00,19.5,-2.0,30.08,WSW,240,6.0,18.0,38,0.00,,,0.00,weatherlink.com 1.10,2013-01-22 21:48:00,
2013-01-22 17:03:00,19.4,-2.0,30.08,NW,321,8.0,14.0,39,0.00,,,0.00,weatherlink.com 1.10,2013-01-22 22:03:00,
2013-01-22 17:18:00,19.3,-1.0,30.09,WNW,284,6.0,14.0,41,0.00,,,0.00,weatherlink.com 1.10,2013-01-22 22:18:00,
2013-01-22 17:34:00,19.3,1.0,30.10,WNW,301,6.0,15.0,44,0.00,,,0.00,weatherlink.com 1.10,2013-01-22 22:34:00,
2013-01-22 17:49:00,19.3,1.0,30.11,NW,308,6.0,13.0,45,0.00,,,0.00,weatherlink.com 1.10,2013-01-22 22:49:00,
2013-01-22 18:04:00,19.2,0.0,30.11,West,277,3.0,12.0,43,0.00,,,0.00,weatherlink.com 1.10,2013-01-22 23:04:00,
2013-01-22 18:19:00,18.9,-1.0,30.12,NW,321,5.0,16.0,41,0.00,,,0.00,weatherlink.com 1.10,2013-01-22 23:19:00,
2013-01-22 18:34:00,18.8,0.0,30.12,WSW,257,7.0,13.0,44,0.00,,,0.00,weatherlink.com 1.10,2013-01-22 23:34:00,
2013-01-22 18:49:00,18.6,1.0,30.13,WNW,290,4.0,11.0,46,0.00,,,0.00,weatherlink.com 1.10,2013-01-22 23:49:00,
2013-01-22 19:04:00,18.2,1.0,30.13,West,277,6.0,17.0,47,0.00,,,0.00,weatherlink.com 1.10,2013-01-23 00:04:00,
2013-01-22 19:19:00,17.9,1.0,30.14,West,277,4.0,16.0,47,0.00,,,0.00,weatherlink.com 1.10,2013-01-23 00:19:00,
2013-01-22 19:34:00,17.9,1.0,30.14,NW,308,7.0,14.0,47,0.00,,,0.00,weatherlink.com 1.10,2013-01-23 00:34:00,
2013-01-22 19:49:00,17.7,0.0,30.15,NW,316,9.0,17.0,46,0.00,,,0.00,weatherlink.com 1.10,2013-01-23 00:49:00,
2013-01-22 20:04:00,17.7,1.0,30.16,WNW,290,8.0,13.0,47,0.00,,,0.00,weatherlink.com 1.10,2013-01-23 01:04:00,
2013-01-22 20:19:00,17.5,0.0,30.16,NNW,329,6.0,19.0,46,0.00,,,0.00,weatherlink.com 1.10,2013-01-23 01:19:00,
2013-01-22 20:34:00,17.3,0.0,30.16,NW,307,3.0,20.0,47,0.00,,,0.00,weatherlink.com 1.10,2013-01-23 01:34:00,
2013-01-22 20:50:00,16.8,-1.0,30.16,WNW,290,5.0,21.0,46,0.00,,,0.00,weatherlink.com 1.10,2013-01-23 01:50:00,
2013-01-22 21:05:00,16.9,2.0,30.17,WNW,291,5.0,18.0,51,0.00,,,0.00,weatherlink.com 1.10,2013-01-23 02:05:00,
2013-01-22 21:20:00,16.4,5.0,30.17,West,267,5.0,10.0,62,0.00,,,0.00,weatherlink.com 1.10,2013-01-23 02:20:00,
2013-01-22 21:35:00,16.0,4.0,30.17,NW,323,6.0,16.0,59,0.00,,,0.00,weatherlink.com 1.10,2013-01-23 02:35:00,
2013-01-22 21:50:00,16.3,0.0,30.17,West,266,6.0,11.0,49,0.00,,,0.00,weatherlink.com 1.10,2013-01-23 02:50:00,
2013-01-22 22:05:00,16.1,-1.0,30.18,West,259,3.0,13.0,46,0.00,,,0.00,weatherlink.com 1.10,2013-01-23 03:05:00,
2013-01-22 22:20:00,15.5,-3.0,30.19,West,279,10.0,18.0,43,0.00,,,0.00,weatherlink.com 1.10,2013-01-23 03:20:00,
2013-01-22 22:35:00,15.1,-5.0,30.19,NW,314,8.0,21.0,41,0.00,,,0.00,weatherlink.com 1.10,2013-01-23 03:35:00,
2013-01-22 22:50:00,15.0,-6.0,30.20,West,278,6.0,19.0,39,0.00,,,0.00,weatherlink.com 1.10,2013-01-23 03:50:00,
2013-01-22 23:05:00,15.1,-5.0,30.19,WNW,286,9.0,17.0,40,0.00,,,0.00,weatherlink.com 1.10,2013-01-23 04:05:00,
2013-01-22 23:20:00,15.1,-4.0,30.20,West,271,3.0,18.0,42,0.00,,,0.00,weatherlink.com 1.10,2013-01-23 04:20:00,
2013-01-22 23:35:00,14.7,-6.0,30.20,WNW,295,4.0,16.0,40,0.00,,,0.00,weatherlink.com 1.10,2013-01-23 04:35:00,
2013-01-22 23:50:00,14.6,-6.0,30.19,WNW,291,8.0,21.0,39,0.00,,,0.00,weatherlink.com 1.10,2013-01-23 04:50:00,